createdAt,value
2022-09-10T00:00:46.921Z,16.62
2022-09-10T00:06:35.454Z,16.64
2022-09-10T00:12:22.210Z,16.44
2022-09-10T00:18:11.622Z,16.40
2022-09-10T00:23:58.698Z,16.40
2022-09-10T00:29:45.365Z,16.13
2022-09-10T00:35:33.425Z,16.08
2022-09-10T00:41:22.355Z,16.07
2022-09-10T00:47:38.072Z,15.91
2022-09-10T00:53:28.261Z,15.95
2022-09-10T00:59:18.871Z,15.80
2022-09-10T01:05:07.353Z,15.76
2022-09-10T01:11:08.680Z,15.62
2022-09-10T01:17:18.450Z,15.72
2022-09-10T01:23:41.394Z,15.72
2022-09-10T01:29:33.193Z,15.69
2022-09-10T01:35:28.259Z,15.66
2022-09-10T01:41:15.209Z,15.51
2022-09-10T01:47:14.991Z,15.56
2022-09-10T01:53:20.575Z,15.54
2022-09-10T01:59:19.754Z,15.63
2022-09-10T02:05:08.585Z,15.50
2022-09-10T02:11:00.585Z,15.56
2022-09-10T02:16:55.024Z,15.55
2022-09-10T02:22:52.051Z,15.53
2022-09-10T02:28:38.998Z,15.33
2022-09-10T02:34:26.108Z,15.32
2022-09-10T02:40:13.887Z,15.45
2022-09-10T02:46:02.414Z,15.24
2022-09-10T02:51:50.554Z,15.27
2022-09-10T02:57:40.899Z,15.39
2022-09-10T03:03:28.946Z,15.28
2022-09-10T03:09:16.714Z,15.29
2022-09-10T03:15:03.685Z,15.13
2022-09-10T03:20:51.498Z,15.20
2022-09-10T03:26:38.287Z,15.09
2022-09-10T03:32:25.191Z,15.14
2022-09-10T03:38:11.939Z,14.97
2022-09-10T03:44:02.464Z,14.97
2022-09-10T03:49:50.679Z,14.96
2022-09-10T03:55:38.086Z,14.97
2022-09-10T04:01:25.010Z,14.93
2022-09-10T04:07:11.802Z,15.07
2022-09-10T04:12:58.930Z,15.17
2022-09-10T04:18:46.183Z,15.18
2022-09-10T04:24:36.061Z,15.25
2022-09-10T04:30:23.500Z,15.23
2022-09-10T04:36:12.827Z,15.16
2022-09-10T04:42:00.978Z,15.27
2022-09-10T04:47:49.498Z,15.41
2022-09-10T04:53:36.370Z,15.31
2022-09-10T04:59:23.165Z,15.26
2022-09-10T05:05:10.091Z,15.28
2022-09-10T05:11:03.830Z,15.33
2022-09-10T05:16:50.701Z,15.20
2022-09-10T05:22:40.617Z,15.24
2022-09-10T05:28:28.166Z,15.39
2022-09-10T05:34:15.700Z,15.37
2022-09-10T05:40:08.440Z,15.30
2022-09-10T05:45:55.548Z,15.14
2022-09-10T05:51:42.422Z,15.09
2022-09-10T05:57:31.230Z,15.25
2022-09-10T06:03:19.317Z,15.44
2022-09-10T06:09:08.668Z,15.53
2022-09-10T06:15:24.954Z,15.50
2022-09-10T06:21:15.128Z,15.50
2022-09-10T06:27:03.921Z,15.57
2022-09-10T06:32:53.299Z,15.59
2022-09-10T06:38:41.082Z,15.70
2022-09-10T06:44:31.505Z,15.81
2022-09-10T06:50:31.357Z,15.78
2022-09-10T06:56:18.751Z,15.97
2022-09-10T07:02:06.409Z,16.20
2022-09-10T07:07:54.928Z,16.27
2022-09-10T07:13:43.223Z,16.38
2022-09-10T07:19:36.222Z,16.38
2022-09-10T07:25:27.020Z,16.27
2022-09-10T07:31:28.202Z,16.24
2022-09-10T07:37:17.271Z,16.24
2022-09-10T07:43:06.997Z,16.39
2022-09-10T07:48:57.108Z,16.85
2022-09-10T07:54:44.259Z,17.68
2022-09-10T08:00:32.236Z,17.79
2022-09-10T08:06:25.568Z,17.91
2022-09-10T08:12:13.592Z,18.26
2022-09-10T08:18:03.450Z,18.29
2022-09-10T08:23:54.397Z,18.55
2022-09-10T08:29:41.734Z,19.42
2022-09-10T08:35:30.183Z,19.53
2022-09-10T08:41:39.069Z,19.70
2022-09-10T08:47:56.996Z,19.97
2022-09-10T08:53:44.096Z,19.65
2022-09-10T08:59:44.760Z,19.10
2022-09-10T09:05:45.453Z,19.17
2022-09-10T09:11:51.189Z,19.04
2022-09-10T09:18:00.910Z,18.55
2022-09-10T09:24:12.155Z,18.66
2022-09-10T09:30:14.229Z,19.26
2022-09-10T09:36:03.189Z,19.59
2022-09-10T09:42:18.362Z,19.97
2022-09-10T09:48:08.428Z,21.05
2022-09-10T09:54:34.440Z,21.64
2022-09-10T10:00:31.305Z,21.51
2022-09-10T10:06:32.298Z,20.96
2022-09-10T10:12:22.697Z,20.67
2022-09-10T10:18:38.652Z,20.55
2022-09-10T10:24:33.870Z,21.00
2022-09-10T10:30:24.030Z,21.73
2022-09-10T10:36:21.514Z,21.66
2022-09-10T10:42:17.654Z,20.95
2022-09-10T10:48:10.582Z,21.98
2022-09-10T10:54:15.679Z,22.39
2022-09-10T11:00:31.980Z,22.14
2022-09-10T11:06:23.497Z,23.23
2022-09-10T11:12:16.771Z,23.40
2022-09-10T11:18:24.023Z,23.18
2022-09-10T11:24:14.999Z,23.68
2022-09-10T11:30:10.131Z,23.85
2022-09-10T11:36:06.233Z,24.24
2022-09-10T11:41:54.888Z,24.24
2022-09-10T11:47:50.981Z,23.61
2022-09-10T11:53:37.664Z,23.34
2022-09-10T11:59:46.595Z,22.77
2022-09-10T12:05:42.719Z,22.02
2022-09-10T12:11:43.361Z,21.89
2022-09-10T12:17:36.793Z,21.18
2022-09-10T12:23:37.575Z,20.93
2022-09-10T12:29:46.009Z,21.06
2022-09-10T12:35:32.720Z,20.96
2022-09-10T12:41:28.434Z,21.06
2022-09-10T12:47:15.093Z,21.32
2022-09-10T12:53:46.000Z,22.15
2022-09-10T12:59:42.812Z,22.40
2022-09-10T13:13:04.981Z,22.43
2022-09-10T13:19:31.348Z,22.29
2022-09-10T13:26:19.653Z,21.82
2022-09-10T13:34:59.910Z,21.57
2022-09-10T13:40:13.187Z,21.78
2022-09-10T13:46:10.102Z,22.23
2022-09-10T13:52:00.019Z,22.13
2022-09-10T13:57:52.716Z,21.66
2022-09-10T14:03:43.091Z,21.85
2022-09-10T14:09:31.326Z,21.78
2022-09-10T14:15:24.793Z,21.93
2022-09-10T14:21:16.183Z,21.83
2022-09-10T14:27:06.331Z,21.80
2022-09-10T14:32:53.479Z,21.57
2022-09-10T14:47:42.672Z,21.70
2022-09-10T15:09:55.201Z,21.84
2022-09-10T15:15:41.859Z,22.46
2022-09-10T15:21:28.580Z,22.95
2022-09-10T15:43:03.875Z,22.96
2022-09-10T15:48:51.972Z,22.93
2022-09-10T15:54:39.061Z,23.09
2022-09-10T16:00:26.011Z,23.14
2022-09-10T16:06:12.701Z,22.66
2022-09-10T16:11:59.544Z,22.43
2022-09-10T16:18:09.039Z,22.71
2022-09-10T16:25:32.872Z,22.38
2022-09-10T16:31:37.075Z,22.11
2022-09-10T16:37:26.187Z,22.33
2022-09-10T16:49:46.581Z,22.04
2022-09-10T16:55:33.995Z,21.66
2022-09-10T17:01:21.556Z,21.51
2022-09-10T17:07:08.700Z,21.23
2022-09-10T17:12:56.048Z,21.21
2022-09-10T17:18:44.251Z,21.27
2022-09-10T17:24:31.669Z,21.40
2022-09-10T17:30:24.288Z,21.09
2022-09-10T17:36:11.360Z,21.04
2022-09-10T17:41:58.869Z,21.18
2022-09-10T17:47:45.680Z,21.27
2022-09-10T17:53:33.873Z,21.04
2022-09-10T17:59:22.075Z,20.81
2022-09-10T18:05:11.481Z,20.73
2022-09-10T18:11:07.557Z,20.68
2022-09-10T18:16:58.119Z,20.47
2022-09-10T18:22:49.933Z,20.30
2022-09-10T18:28:36.855Z,20.29
2022-09-10T18:41:46.326Z,20.31
2022-09-10T18:44:26.527Z,20.45
2022-09-10T18:47:44.532Z,20.22
2022-09-10T18:53:32.356Z,20.14
2022-09-10T18:59:21.436Z,20.13
2022-09-10T19:05:11.621Z,19.90
2022-09-10T19:10:59.195Z,19.56
2022-09-10T19:16:47.166Z,19.55
2022-09-10T19:22:34.000Z,19.63
2022-09-10T19:28:54.011Z,19.68
2022-09-10T19:34:53.180Z,19.61
2022-09-10T19:40:42.667Z,19.83
2022-09-10T19:46:32.544Z,19.66
2022-09-10T19:52:19.349Z,19.75
2022-09-10T19:58:06.509Z,19.77
2022-09-10T20:03:56.396Z,19.79
2022-09-10T20:09:44.510Z,19.70
2022-09-10T20:15:54.429Z,19.60
2022-09-10T20:21:48.199Z,19.30
2022-09-10T20:27:41.035Z,19.02
2022-09-10T20:33:32.894Z,19.09
2022-09-10T20:39:27.097Z,19.22
2022-09-10T20:45:29.162Z,18.76
2022-09-10T20:51:43.991Z,18.82
2022-09-10T20:57:35.104Z,18.98
2022-09-10T21:03:33.011Z,19.09
2022-09-10T21:09:23.130Z,19.04
2022-09-10T21:15:12.024Z,18.88
2022-09-10T21:21:13.635Z,18.80
2022-09-10T21:27:03.074Z,18.74
2022-09-10T21:33:01.385Z,18.57
2022-09-10T21:38:59.565Z,18.56
2022-09-10T21:44:51.877Z,18.42
2022-09-10T21:50:39.926Z,18.53
2022-09-10T21:56:29.895Z,18.48
2022-09-10T22:02:19.262Z,18.38
2022-09-10T22:08:12.070Z,18.32
2022-09-10T22:14:24.049Z,18.13
2022-09-10T22:20:14.506Z,17.95
2022-09-10T22:26:10.069Z,18.00
2022-09-10T22:31:58.121Z,17.84
2022-09-10T22:37:47.572Z,17.72
2022-09-10T22:43:42.321Z,17.65
2022-09-10T22:49:30.413Z,17.54
2022-09-10T22:55:17.824Z,17.59
2022-09-10T23:01:26.406Z,17.48
2022-09-10T23:07:14.389Z,17.59
2022-09-10T23:13:01.842Z,17.55
2022-09-10T23:18:54.807Z,17.58
2022-09-10T23:24:41.653Z,17.53
2022-09-10T23:30:29.900Z,17.52
2022-09-10T23:36:16.692Z,17.46
2022-09-10T23:42:03.859Z,17.49
2022-09-10T23:47:52.373Z,17.38
2022-09-10T23:53:40.008Z,17.26
2022-09-10T23:59:32.202Z,17.33
